Fort Story, Virginia
Current Conditions -  °F | °C
As of 6:56 AM on Saturday 25 Oct 2014 (Local Time) from KNTU Reporting Station
Clear Clear  
Wind Chill: 47°   Ceiling: Unl
Heat Index: 47°   Visibility: 10mi
Dew Point: 43°   Wind: 3mph
Humidity: 86%   Direction: 220°SW
Pressure: 29.96"   Gusts: NA
Location:  36.922°N, 76.0108°W
Report Text: KNTU 251056Z 22003KT 10SM CLR 08/06 A2996 RMK AO2 SLP148 T00830061
Loading
Personal Weather Stations






























Interactive Weather Map
Tropical Storm Tracking
New forecast layout! Learn more

10-Day Weather Forecast

Advertisements
Track Severe Weather on mobile